This is the latest recevied weather packets stored in our database for station/object IZ1UKX-13. If no packets are shown the sender has not sent any weather packets the latest 10 day(s).
| Time | Temp. | Humidity | Pressure | Rain* | Wind** | Luminosity | Snow |
|---|---|---|---|---|---|---|---|
| 1778162443 | 18.89° C | 70% | 1023.2 hPa | 0 mm | - | 0 W/m² | - |
| 1778162144 | 19.44° C | 68% | 1023.2 hPa | 0 mm | - | 0 W/m² | - |
| 1778161849 | 19.44° C | 69% | 1023.2 hPa | 0 mm | - | 0 W/m² | - |
| 1778161544 | 20° C | 67% | 1023.2 hPa | 0 mm | - | 0 W/m² | - |
| 1778161244 | 20° C | 69% | 1022.7 hPa | 0 mm | - | 0 W/m² | - |
| 1778160944 | 18.89° C | 71% | 1023.2 hPa | 0 mm | - | 0 W/m² | - |
| 1778160643 | 18.89° C | 73% | 1023.2 hPa | 0 mm | - | 0 W/m² | - |
| 1778160344 | 18.33° C | 76% | 1023.2 hPa | 0 mm | - | 0 W/m² | - |
| 1778160044 | 17.22° C | 79% | 1023.6 hPa | 0 mm | - | 0 W/m² | - |
| 1778159745 | 16.67° C | 82% | 1023.6 hPa | 0 mm | - | 0 W/m² | - |
| 1778159443 | 16.67° C | 80% | 1023.6 hPa | 0 mm | - | 0 W/m² | - |
| 1778159143 | 16.67° C | 80% | 1023.6 hPa | 0 mm | - | 0 W/m² | - |
| 1778158844 | 16.67° C | 81% | 1023.6 hPa | 0 mm | - | 0 W/m² | - |
| 1778158544 | 16.11° C | 83% | 1023.6 hPa | 0 mm | - | 0 W/m² | - |
| 1778158243 | 15.56° C | 84% | 1024 hPa | 0 mm | - | 0 W/m² | - |
| 1778157943 | 15° C | 85% | 1024 hPa | 0 mm | - | 0 W/m² | - |
| 1778157643 | 14.44° C | 86% | 1024 hPa | 0 mm | - | 0 W/m² | - |
| 1778157343 | 14.44° C | 86% | 1024 hPa | 0 mm | - | 0 W/m² | - |
| 1778157044 | 15° C | 85% | 1024 hPa | 0 mm | - | 0 W/m² | - |
| 1778156744 | 15° C | 85% | 1024 hPa | 0 mm | - | 0 W/m² | - |
| 1778156444 | 15° C | 85% | 1024 hPa | 0 mm | - | 0 W/m² | - |
| 1778156144 | 15° C | 85% | 1024 hPa | 0 mm | - | 0 W/m² | - |
| 1778155844 | 15° C | 87% | 1024 hPa | 0 mm | - | 0 W/m² | - |
| 1778155544 | 15° C | 88% | 1024 hPa | 0 mm | - | 0 W/m² | - |
| 1778155244 | 14.44° C | 88% | 1024 hPa | 0 mm | - | 0 W/m² | - |
* Rain latest hour (hover to see other rain measurements)
** Current wind speed in m/s (hover to see current wind gust speed)